Time;durP1;ratioP1;P1;durP2;ratioP2;P2;SDS_P1;SDS_P2;PMS_P1;PMS_P2;Temp;Humidity;BMP_temperature;BMP_pressure;BME280_temperature;BME280_humidity;BME280_pressure;Samples;Min_cycle;Max_cycle;Signal;HPM_P1;HPM_P2
2022/09/27 00:07:31;;;;;;;5.03;2.20;;;18.20;42.60;;;;;;20816407;28;20468;-56
2022/09/27 00:17:33;;;;;;;5.50;1.90;;;18.20;42.80;;;;;;20833282;28;20482;-59
2022/09/27 00:27:35;;;;;;;8.82;2.40;;;18.20;42.60;;;;;;20832374;28;20359;-56
2022/09/27 00:37:36;;;;;;;7.22;2.70;;;18.00;43.10;;;;;;20831452;28;20116;-57
2022/09/27 00:48:03;;;;;;;6.22;2.53;;;17.80;43.50;;;;;;20830646;28;20085;-55
2022/09/27 00:58:07;;;;;;;8.25;2.33;;;17.70;44.00;;;;;;20830069;28;20045;-56
2022/09/27 01:08:08;;;;;;;5.00;2.05;;;17.40;44.70;;;;;;20829233;28;20207;-56
2022/09/27 01:18:39;;;;;;;6.38;2.08;;;17.60;44.60;;;;;;20828514;28;20046;-55
2022/09/27 01:28:47;;;;;;;4.32;2.33;;;17.60;44.50;;;;;;20837821;28;20049;-55
2022/09/27 01:39:21;;;;;;;6.15;2.35;;;17.50;44.90;;;;;;20845682;28;20485;-56
2022/09/27 01:49:56;;;;;;;7.03;1.90;;;17.30;45.10;;;;;;20844734;28;20125;-54
2022/09/27 02:00:09;;;;;;;;;;;17.30;45.30;;;;;;20840668;28;20064;-55
2022/09/27 02:10:24;;;;;;;2.90;1.35;;;16.80;46.80;;;;;;20842886;28;19932;-55
2022/09/27 02:20:38;;;;;;;3.25;1.00;;;16.40;46.60;;;;;;20841990;28;20061;-56
2022/09/27 02:30:43;;;;;;;2.33;1.27;;;16.10;47.00;;;;;;20823844;28;20522;-56
2022/09/27 02:40:47;;;;;;;4.07;0.90;;;15.80;47.70;;;;;;20840717;28;20056;-57
2022/09/27 02:51:24;;;;;;;3.20;1.00;;;15.60;48.30;;;;;;20839883;28;20057;-56
2022/09/27 03:02:10;;;;;;;2.28;1.00;;;15.20;49.20;;;;;;20838623;28;20084;-55
2022/09/27 03:12:13;;;;;;;2.47;0.90;;;15.10;49.50;;;;;;20666516;28;20132;-55
2022/09/27 03:22:16;;;;;;;2.63;1.13;;;14.80;50.00;;;;;;20665786;28;20097;-56
2022/09/27 03:32:19;;;;;;;3.75;0.95;;;14.70;49.60;;;;;;20664973;28;20573;-56
2022/09/27 03:42:22;;;;;;;2.10;0.90;;;14.70;49.10;;;;;;20694808;28;20056;-56
2022/09/27 03:52:24;;;;;;;3.65;0.93;;;14.70;49.20;;;;;;20752606;28;20058;-56
2022/09/27 04:02:27;;;;;;;1.48;0.85;;;14.60;50.30;;;;;;20752271;28;20172;-56
2022/09/27 04:12:29;;;;;;;4.85;1.10;;;14.50;50.90;;;;;;20751759;28;20506;-57
2022/09/27 04:22:31;;;;;;;4.03;1.10;;;14.30;51.20;;;;;;20750633;28;20050;-55
2022/09/27 04:32:33;;;;;;;5.15;1.00;;;14.20;51.60;;;;;;20787800;28;20095;-57
2022/09/27 04:42:35;;;;;;;3.30;1.08;;;14.20;51.90;;;;;;20831600;28;20060;-57
2022/09/27 04:52:40;;;;;;;3.95;1.25;;;14.20;52.00;;;;;;20830748;28;20056;-56
2022/09/27 05:02:43;;;;;;;4.25;1.90;;;14.10;52.40;;;;;;20828841;28;20136;-56
2022/09/27 05:12:45;;;;;;;4.20;1.43;;;14.20;53.20;;;;;;20829687;28;20048;-57
2022/09/27 05:22:47;;;;;;;4.82;2.00;;;14.10;52.90;;;;;;20829662;28;20076;-56
2022/09/27 05:32:49;;;;;;;5.13;1.67;;;14.10;53.40;;;;;;20828889;28;20057;-56
2022/09/27 05:42:51;;;;;;;5.40;1.58;;;13.80;53.90;;;;;;20828976;28;20401;-57
2022/09/27 05:52:53;;;;;;;7.60;1.80;;;13.70;54.50;;;;;;20828054;28;20391;-58
2022/09/27 06:02:57;;;;;;;6.20;3.70;;;13.70;54.80;;;;;;20827528;28;20103;-58
2022/09/27 06:13:05;;;;;;;4.40;1.93;;;13.60;55.00;;;;;;20815854;28;20054;-57
2022/09/27 06:23:09;;;;;;;5.07;2.00;;;13.70;54.40;;;;;;20842158;28;20053;-57
2022/09/27 06:33:16;;;;;;;8.47;2.17;;;13.70;54.30;;;;;;20841618;28;20065;-57
2022/09/27 06:43:19;;;;;;;10.38;3.88;;;13.90;54.40;;;;;;20841946;28;20055;-57
2022/09/27 06:53:22;;;;;;;29.48;11.48;;;13.90;54.70;;;;;;20839757;28;20478;-57
2022/09/27 07:03:31;;;;;;;16.98;4.93;;;14.00;54.50;;;;;;20839897;28;20045;-58
2022/09/27 07:13:35;;;;;;;11.65;3.63;;;14.00;54.40;;;;;;20838548;28;20073;-57
2022/09/27 07:23:38;;;;;;;23.48;12.15;;;14.00;54.60;;;;;;20836492;28;20060;-58
2022/09/27 07:33:40;;;;;;;9.70;2.40;;;14.10;54.30;;;;;;20837067;28;20422;-57
2022/09/27 07:43:43;;;;;;;5.07;2.08;;;14.20;54.20;;;;;;20819906;28;20107;-61
2022/09/27 07:53:45;;;;;;;4.40;2.28;;;14.50;53.50;;;;;;20835546;28;20049;-57
2022/09/27 08:03:47;;;;;;;8.25;2.80;;;14.80;52.70;;;;;;20834992;28;20064;-60
2022/09/27 08:13:51;;;;;;;13.45;4.32;;;15.20;51.70;;;;;;20834296;28;20050;-55
2022/09/27 08:23:53;;;;;;;12.17;4.20;;;15.70;50.10;;;;;;20816057;28;20053;-55
2022/09/27 08:33:55;;;;;;;10.45;4.18;;;16.20;48.30;;;;;;20832261;28;20045;-55
2022/09/27 08:44:12;;;;;;;7.15;2.70;;;16.40;47.40;;;;;;20831736;28;20050;-55
2022/09/27 08:54:20;;;;;;;7.28;2.38;;;16.90;46.20;;;;;;20831182;28;20449;-55
2022/09/27 09:04:26;;;;;;;12.38;3.92;;;17.10;45.40;;;;;;20830102;28;20056;-57
2022/09/27 09:14:58;;;;;;;4.25;1.70;;;17.30;45.20;;;;;;20828162;28;20057;-52
2022/09/27 09:25:06;;;;;;;3.95;2.30;;;19.40;44.60;;;;;;20829583;28;20053;-52
2022/09/27 09:35:33;;;;;;;5.97;1.75;;;20.70;40.80;;;;;;20829207;28;20050;-53
2022/09/27 09:45:49;;;;;;;8.13;2.88;;;21.10;39.00;;;;;;20830832;28;20110;-53
2022/09/27 09:55:57;;;;;;;3.20;1.70;;;21.30;38.50;;;;;;20845944;28;20478;-52
2022/09/27 10:05:59;;;;;;;4.00;1.23;;;21.50;37.80;;;;;;20844116;28;20129;-54
2022/09/27 10:16:09;;;;;;;4.25;1.10;;;21.60;37.50;;;;;;20842952;28;20045;-55
2022/09/27 10:26:10;;;;;;;6.75;1.42;;;21.60;37.70;;;;;;20842546;28;20061;-54
2022/09/27 10:36:24;;;;;;;7.10;1.35;;;21.70;37.40;;;;;;20840362;28;20053;-52
2022/09/27 10:46:30;;;;;;;5.47;1.88;;;21.90;36.80;;;;;;20805965;28;20098;-52
2022/09/27 10:56:34;;;;;;;4.07;1.38;;;21.90;37.00;;;;;;20757993;28;20046;-53
2022/09/27 11:06:37;;;;;;;2.63;0.90;;;21.80;37.00;;;;;;20758147;28;20493;-51
2022/09/27 11:16:52;;;;;;;3.22;1.40;;;21.90;36.70;;;;;;20756818;28;20470;-53
2022/09/27 11:27:43;;;;;;;1.70;0.80;;;22.10;36.50;;;;;;20756284;28;20053;-54
2022/09/27 11:38:22;;;;;;;5.00;1.40;;;22.10;34.40;;;;;;20754732;28;20495;-55
2022/09/27 11:48:45;;;;;;;4.80;1.15;;;22.30;35.30;;;;;;20754583;28;20143;-54
2022/09/27 11:58:54;;;;;;;;;;;22.40;33.10;;;;;;20754999;28;20080;-57
2022/09/27 12:09:18;;;;;;;2.97;0.80;;;22.40;32.40;;;;;;20752926;28;20397;-56
2022/09/27 12:19:26;;;;;;;2.72;1.10;;;22.20;32.40;;;;;;20751996;28;20053;-56
2022/09/27 12:29:32;;;;;;;2.47;0.80;;;22.30;32.90;;;;;;20751972;28;20483;-58
2022/09/27 12:39:51;;;;;;;1.65;0.82;;;22.50;33.20;;;;;;20750998;28;20398;-56
2022/09/27 12:50:01;;;;;;;1.60;0.70;;;22.50;33.00;;;;;;20749442;28;20072;-55
2022/09/27 13:00:09;;;;;;;1.80;0.60;;;22.70;30.50;;;;;;20748376;28;20108;-56
2022/09/27 13:10:23;;;;;;;0.60;0.47;;;23.00;30.20;;;;;;20747521;28;20149;-56
2022/09/27 13:20:34;;;;;;;1.77;0.60;;;23.00;30.30;;;;;;20745784;28;20568;-58
2022/09/27 13:30:37;;;;;;;1.55;0.60;;;23.20;29.90;;;;;;20746389;28;20532;-56
2022/09/27 13:40:40;;;;;;;2.57;0.60;;;23.20;29.60;;;;;;20746805;28;20046;-56
2022/09/27 13:50:55;;;;;;;1.27;0.60;;;23.30;30.20;;;;;;20746629;28;20065;-57
2022/09/27 14:01:14;;;;;;;1.25;0.60;;;23.60;29.50;;;;;;20747173;28;20125;-56
2022/09/27 14:11:26;;;;;;;1.95;0.50;;;23.50;29.90;;;;;;20745567;28;20088;-57
2022/09/27 14:21:38;;;;;;;3.97;0.50;;;23.60;30.10;;;;;;20745723;28;20415;-55
2022/09/27 14:31:39;;;;;;;1.35;0.70;;;23.60;29.30;;;;;;20747017;28;20062;-57
2022/09/27 14:41:41;;;;;;;3.70;1.60;;;23.60;29.70;;;;;;20741296;28;20046;-56
2022/09/27 14:51:50;;;;;;;19.00;13.00;;;23.60;29.40;;;;;;20758558;28;20104;-55
2022/09/27 15:01:53;;;;;;;2.15;0.93;;;23.60;29.20;;;;;;20757695;28;20049;-56
2022/09/27 15:12:01;;;;;;;3.30;1.55;;;23.70;29.40;;;;;;20756769;28;20077;-56
2022/09/27 15:22:33;;;;;;;8.77;0.90;;;23.60;29.80;;;;;;20756214;28;20100;-56
2022/09/27 15:32:35;;;;;;;1.45;0.60;;;23.60;30.00;;;;;;20755333;28;20058;-54
2022/09/27 15:42:58;;;;;;;1.73;1.03;;;23.50;32.60;;;;;;20831342;28;20053;-55
2022/09/27 15:53:01;;;;;;;1.65;1.02;;;23.60;32.60;;;;;;20830161;28;20096;-54
2022/09/27 16:03:03;;;;;;;3.63;0.70;;;23.60;32.70;;;;;;20832052;28;20445;-52
2022/09/27 16:13:05;;;;;;;1.17;0.60;;;23.60;31.20;;;;;;20833269;28;20128;-54
2022/09/27 16:23:07;;;;;;;1.43;0.77;;;23.60;31.60;;;;;;20814938;28;20081;-54
2022/09/27 16:33:08;;;;;;;2.15;0.70;;;23.60;31.50;;;;;;20831147;28;20065;-55
2022/09/27 16:43:10;;;;;;;3.33;1.25;;;23.50;31.00;;;;;;20830012;28;20053;-55
2022/09/27 16:53:12;;;;;;;3.90;1.60;;;23.40;31.60;;;;;;20831816;28;20045;-55
2022/09/27 17:03:14;;;;;;;2.03;0.87;;;23.30;31.70;;;;;;20804546;28;20045;-53
2022/09/27 17:13:17;;;;;;;1.30;0.60;;;23.20;31.70;;;;;;20828530;28;20080;-53
2022/09/27 17:23:18;;;;;;;2.97;0.83;;;23.10;32.30;;;;;;20803295;28;20509;-56
2022/09/27 17:33:20;;;;;;;2.03;0.60;;;23.00;31.50;;;;;;20808682;28;20502;-58
2022/09/27 17:43:22;;;;;;;2.83;0.90;;;22.90;31.40;;;;;;20828144;28;20393;-54
2022/09/27 17:53:24;;;;;;;2.53;1.30;;;22.70;33.60;;;;;;20826066;28;20106;-55
2022/09/27 18:03:26;;;;;;;2.25;0.80;;;22.70;33.10;;;;;;20825837;28;20049;-54
2022/09/27 18:13:30;;;;;;;1.80;0.80;;;22.70;33.60;;;;;;20838437;28;20053;-55
2022/09/27 18:23:32;;;;;;;4.85;1.30;;;22.80;33.60;;;;;;20840368;28;20149;-56
2022/09/27 18:33:35;;;;;;;2.87;1.13;;;22.90;33.90;;;;;;20837339;28;20056;-58
2022/09/27 18:43:38;;;;;;;1.17;0.80;;;22.50;32.80;;;;;;20841581;28;20064;-58
2022/09/27 18:53:40;;;;;;;4.00;0.95;;;22.10;33.30;;;;;;20840643;28;20045;-58
2022/09/27 19:03:42;;;;;;;3.90;1.20;;;21.80;34.00;;;;;;20839419;28;20122;-58
2022/09/27 19:13:48;;;;;;;2.23;1.43;;;21.60;34.20;;;;;;20838321;28;20053;-57
2022/09/27 19:23:51;;;;;;;13.02;5.00;;;21.40;34.70;;;;;;20835948;28;20056;-58
2022/09/27 19:33:53;;;;;;;5.22;2.92;;;21.30;35.10;;;;;;20836773;28;20052;-57
2022/09/27 19:43:55;;;;;;;14.45;8.27;;;21.20;35.30;;;;;;20818392;28;20131;-58
2022/09/27 19:53:57;;;;;;;10.93;6.47;;;21.20;35.60;;;;;;20835071;28;20077;-56
2022/09/27 20:03:58;;;;;;;6.57;3.05;;;21.20;35.70;;;;;;20834974;28;20081;-58
2022/09/27 20:14:00;;;;;;;6.93;2.42;;;21.20;35.90;;;;;;20833186;28;20417;-58
2022/09/27 20:24:04;;;;;;;8.98;3.70;;;21.00;36.30;;;;;;20831341;28;20103;-56
2022/09/27 20:34:10;;;;;;;4.45;2.80;;;20.80;36.40;;;;;;20830667;28;20052;-58
2022/09/27 20:44:18;;;;;;;8.80;4.25;;;20.70;36.90;;;;;;20830617;28;20398;-57
2022/09/27 20:54:19;;;;;;;8.60;3.47;;;20.60;37.00;;;;;;20830961;28;20500;-56
2022/09/27 21:04:22;;;;;;;6.20;2.90;;;20.60;37.10;;;;;;20829696;28;20049;-55
2022/09/27 21:14:24;;;;;;;5.63;3.50;;;20.50;37.50;;;;;;20829732;28;20049;-56
2022/09/27 21:24:25;;;;;;;6.93;3.60;;;20.40;37.60;;;;;;20830635;28;20054;-56
2022/09/27 21:34:26;;;;;;;8.13;4.30;;;20.30;37.90;;;;;;20828936;28;20076;-58
2022/09/27 21:44:28;;;;;;;13.27;6.10;;;20.20;38.60;;;;;;20835199;28;20052;-56
2022/09/27 21:54:30;;;;;;;13.82;5.05;;;20.10;39.40;;;;;;20846065;28;20049;-56
2022/09/27 22:04:32;;;;;;;12.40;4.95;;;19.90;39.90;;;;;;20844664;28;20053;-57
2022/09/27 22:14:34;;;;;;;12.63;4.60;;;19.80;40.50;;;;;;20844395;28;20060;-57
2022/09/27 22:24:36;;;;;;;15.10;4.57;;;19.50;41.40;;;;;;20844518;28;20412;-58
2022/09/27 22:34:37;;;;;;;8.73;4.57;;;19.30;41.90;;;;;;20842011;28;20061;-56
2022/09/27 22:44:39;;;;;;;12.65;5.20;;;19.40;41.90;;;;;;20842436;28;20053;-57
2022/09/27 22:54:41;;;;;;;10.65;5.35;;;19.50;42.30;;;;;;20822741;28;20053;-56
2022/09/27 23:04:42;;;;;;;8.90;4.95;;;19.50;42.50;;;;;;20840675;28;20053;-56
2022/09/27 23:14:44;;;;;;;12.15;6.00;;;19.50;42.60;;;;;;20838933;28;20052;-55
2022/09/27 23:24:45;;;;;;;10.95;5.38;;;19.20;43.20;;;;;;20838228;28;20061;-57
2022/09/27 23:34:47;;;;;;;8.95;4.50;;;19.10;43.30;;;;;;20836997;28;20067;-55
2022/09/27 23:44:51;;;;;;;9.13;4.40;;;19.10;42.90;;;;;;20836512;28;20669;-56
2022/09/27 23:54:53;;;;;;;10.65;4.78;;;19.00;43.50;;;;;;20835799;28;20045;-56
